]idnight River — HP7399 — position and weather

sailwx.info

Track history (hours):
 
Tides and Currents Weather Stations Pressure Air Temp Water Temp Dewpoint Dewpoint Depression Visibility Wind Speed Wind Dir Waves Ship Positions

]idnight River

Last reported at 2015-May-24 10:32 UTC. Time now 2015-May-24 17:19 UTC.
Position N 18°24' W 064°32'.

; draft 9 m.

Type: Ship. MMSI: 352319000.

Date/timePositionNaut miles runAvg speedWind from/ knotsBaromVisibWave heightAir tempDewpointWater temp
2015-May-24 10:32N 18°24' W 064°32'60 9.3
2015-May-24 04:06N 18°11' W 063°31'5 9.1
2015-May-24 03:33N 18°10' W 063°26'10 9.4
2015-May-24 02:32N 18°07' W 063°16'10 9.9
2015-May-24 01:32N 18°05' W 063°06'1 0.9
2015-May-24 00:33N 18°05' W 063°05'0 0.0
2015-May-23 23:32N 18°05' W 063°05'0 0.0
2015-May-23 22:32N 18°05' W 063°05'0 0.0
2015-May-23 21:31N 18°05' W 063°05'0 0.0
2015-May-23 20:33N 18°05' W 063°05'0 0.0
2015-May-23 19:32N 18°05' W 063°05'0 0.0
2015-May-23 18:31N 18°05' W 063°05'0 0.0
2015-May-23 17:32N 18°05' W 063°05'1 0.9
2015-May-23 16:33N 18°06' W 063°05'1 0.1
2015-May-23 07:31N 18°05' W 063°05'0 0.0
2015-May-23 06:32N 18°05' W 063°05'0 0.0
2015-May-23 05:33N 18°05' W 063°05'0 0.0
2015-May-23 04:33N 18°05' W 063°05'0 0.0
2015-May-23 03:32N 18°05' W 063°05'0 0.0
2015-May-23 02:33N 18°05' W 063°05'0 0.0
2015-May-23 01:33N 18°05' W 063°05'0 0.0
2015-May-23 00:32N 18°05' W 063°05'0 0.0
2015-May-22 23:33N 18°05' W 063°05'0 0.2
2015-May-22 22:33N 18°05' W 063°05'0 0.0
2015-May-22 21:33N 18°05' W 063°05'0 0.0
2015-May-22 20:33N 18°05' W 063°05'0 0.0
2015-May-22 19:32N 18°05' W 063°05'0 0.3
2015-May-22 18:32N 18°05' W 063°05'0 0.0
2015-May-22 17:33N 18°05' W 063°05'0 0.0
2015-May-22 16:32N 18°05' W 063°05'2 1.9
2015-May-22 15:32N 18°07' W 063°05'2 0.2
2015-May-22 07:30N 18°05' W 063°05'0 0.0
2015-May-22 06:32N 18°05' W 063°05'0 0.0
2015-May-22 05:33N 18°05' W 063°05'0 0.0
2015-May-22 04:32N 18°05' W 063°05'0 0.0
2015-May-22 03:33N 18°05' W 063°05'0 0.0
2015-May-22 02:33N 18°05' W 063°05'0 0.0
2015-May-22 01:32N 18°05' W 063°05'0 0.0
2015-May-22 00:33N 18°05' W 063°05'0 0.2
2015-May-21 23:32N 18°05' W 063°05'0 0.0
2015-May-21 22:32N 18°05' W 063°05'0 0.0
2015-May-21 21:32N 18°05' W 063°05'0 0.0
2015-May-21 20:33N 18°05' W 063°05'0 0.0
2015-May-21 19:33N 18°05' W 063°05'0 0.0
2015-May-21 18:33N 18°05' W 063°05'0 0.0
2015-May-21 17:31N 18°05' W 063°05'0 0.0
2015-May-21 07:32N 18°05' W 063°05'0 0.0
2015-May-21 06:32N 18°05' W 063°05'0 0.0
2015-May-21 05:33N 18°05' W 063°05'0 0.0
2015-May-21 04:33N 18°05' W 063°05'0 0.0
2015-May-21 03:32N 18°05' W 063°05'5 5.3
2015-May-21 02:33N 18°02' W 063°10'9 9.3
2015-May-21 01:32N 17°53' W 063°07'7 0.7
2015-May-20 16:31N 17°46' W 063°06'9 9.6
2015-May-20 15:33N 17°55' W 063°08'9 9.2
2015-May-20 14:33N 18°05' W 063°10'4 4.3
2015-May-20 13:31N 18°05' W 063°05'0 0.0
2015-May-20 12:33N 18°05' W 063°05'0 0.0
2015-May-20 11:31N 18°05' W 063°05'0 0.2
2015-May-20 10:32N 18°05' W 063°05'0 0.0
2015-May-20 09:33N 18°05' W 063°05'8 7.5
2015-May-20 08:32N 18°07' W 063°13'9 9.6
2015-May-20 07:33N 18°09' W 063°23'67 9.5
2015-May-20 00:29N 18°24' W 064°32'4 0.2
2015-May-18 22:25N 18°25' W 064°36'8 2.5
2015-May-18 19:23N 18°26' W 064°28'7 9.0
2015-May-18 18:33N 18°25' W 064°36'0 0.0
2015-May-17 02:03N 18°25' W 064°36'510.0
2015-May-17 01:33N 18°24' W 064°31'60 9.3
2015-May-16 19:04N 18°10' W 063°29'5 9.5
2015-May-16 18:32N 18°09' W 063°24'1514.8
2015-May-16 17:30N 18°06' W 063°08'3 3.3
2015-May-16 16:32N 18°05' W 063°05'0 0.0
2015-May-16 15:29N 18°05' W 063°05'0 0.0
2015-May-16 14:30N 18°05' W 063°05'0 0.0
2015-May-16 13:33N 18°05' W 063°05'0 0.3
2015-May-16 12:32N 18°05' W 063°05'0 0.0
2015-May-16 11:31N 18°05' W 063°05'0 0.0
2015-May-16 10:31N 18°05' W 063°05'0 0.0
2015-May-16 09:33N 18°05' W 063°05'0 0.0
2015-May-16 08:33N 18°05' W 063°05'0 0.0
2015-May-16 07:33N 18°05' W 063°05'0 0.0
2015-May-16 06:33N 18°05' W 063°05'0 0.0
2015-May-16 05:31N 18°05' W 063°05'0 0.0
2015-May-16 04:33N 18°05' W 063°05'0 0.0
2015-May-15 21:33N 18°05' W 063°05'0 0.0
2015-May-15 20:31N 18°05' W 063°05'0 0.0
2015-May-15 19:31N 18°05' W 063°05'0 0.0
2015-May-15 18:32N 18°05' W 063°05'0 0.2
2015-May-15 17:33N 18°05' W 063°05'0 0.0
2015-May-15 15:32N 18°05' W 063°05'0 0.0
2015-May-15 14:33N 18°05' W 063°05'0 0.0
2015-May-15 13:33N 18°05' W 063°05'0 0.0
2015-May-15 12:32N 18°05' W 063°05'0 0.0
2015-May-15 11:33N 18°05' W 063°05'0 0.0
2015-May-15 10:31N 18°05' W 063°05'0 0.0
2015-May-15 09:32N 18°05' W 063°05'0 0.0
2015-May-15 08:32N 18°05' W 063°05'0 0.0
2015-May-15 07:33N 18°05' W 063°05'0 0.0
2015-May-15 06:32N 18°05' W 063°05'0 0.0
2015-May-15 05:32N 18°05' W 063°05'0 0.0
2015-May-15 04:33N 18°05' W 063°05'0 0.0
2015-May-15 03:33N 18°05' W 063°05'0 0.0
2015-May-15 02:31N 18°05' W 063°05'0 0.0
2015-May-15 01:33N 18°05' W 063°05'0 0.0
2015-May-15 00:33N 18°05' W 063°05'0 0.0
2015-May-14 23:33N 18°05' W 063°05'0 0.0
2015-May-14 22:33N 18°05' W 063°05'0 0.0
2015-May-14 21:33N 18°05' W 063°05'0 0.0
2015-May-14 20:33N 18°05' W 063°05'0 0.0
2015-May-14 19:32N 18°05' W 063°05'0 0.0
2015-May-14 18:31N 18°05' W 063°05'0 0.0
2015-May-14 17:31N 18°05' W 063°05'0 0.0
2015-May-14 16:32N 18°05' W 063°05'0 0.0
2015-May-14 15:33N 18°05' W 063°05'0 0.0
2015-May-14 14:32N 18°05' W 063°05'0 0.0
2015-May-14 13:33N 18°05' W 063°05'0 0.0
2015-May-14 12:32N 18°05' W 063°05'0 0.0
2015-May-14 11:32N 18°05' W 063°05'  
Track history (hours):
 
Tides and Currents Weather Stations Pressure Air Temp Water Temp Dewpoint Dewpoint Depression Visibility Wind Speed Wind Dir Waves Ship Positions

]idnight River

Last reported at 2015-May-24 10:32 UTC. Time now 2015-May-24 17:19 UTC.
Position N 18°24' W 064°32'.

; draft 9 m.

Type: Ship. MMSI: 352319000.

Date/timePositionNaut miles runAvg speedWind from/ knotsBaromVisibWave heightAir tempDewpointWater temp
2015-May-24 10:32N 18°24' W 064°32'60 9.3
2015-May-24 04:06N 18°11' W 063°31'5 9.1
2015-May-24 03:33N 18°10' W 063°26'10 9.4
2015-May-24 02:32N 18°07' W 063°16'10 9.9
2015-May-24 01:32N 18°05' W 063°06'1 0.9
2015-May-24 00:33N 18°05' W 063°05'0 0.0
2015-May-23 23:32N 18°05' W 063°05'0 0.0
2015-May-23 22:32N 18°05' W 063°05'0 0.0
2015-May-23 21:31N 18°05' W 063°05'0 0.0
2015-May-23 20:33N 18°05' W 063°05'0 0.0
2015-May-23 19:32N 18°05' W 063°05'0 0.0
2015-May-23 18:31N 18°05' W 063°05'0 0.0
2015-May-23 17:32N 18°05' W 063°05'1 0.9
2015-May-23 16:33N 18°06' W 063°05'1 0.1
2015-May-23 07:31N 18°05' W 063°05'0 0.0
2015-May-23 06:32N 18°05' W 063°05'0 0.0
2015-May-23 05:33N 18°05' W 063°05'0 0.0
2015-May-23 04:33N 18°05' W 063°05'0 0.0
2015-May-23 03:32N 18°05' W 063°05'0 0.0
2015-May-23 02:33N 18°05' W 063°05'0 0.0
2015-May-23 01:33N 18°05' W 063°05'0 0.0
2015-May-23 00:32N 18°05' W 063°05'0 0.0
2015-May-22 23:33N 18°05' W 063°05'0 0.2
2015-May-22 22:33N 18°05' W 063°05'0 0.0
2015-May-22 21:33N 18°05' W 063°05'0 0.0
2015-May-22 20:33N 18°05' W 063°05'0 0.0
2015-May-22 19:32N 18°05' W 063°05'0 0.3
2015-May-22 18:32N 18°05' W 063°05'0 0.0
2015-May-22 17:33N 18°05' W 063°05'0 0.0
2015-May-22 16:32N 18°05' W 063°05'2 1.9
2015-May-22 15:32N 18°07' W 063°05'2 0.2
2015-May-22 07:30N 18°05' W 063°05'0 0.0
2015-May-22 06:32N 18°05' W 063°05'0 0.0
2015-May-22 05:33N 18°05' W 063°05'0 0.0
2015-May-22 04:32N 18°05' W 063°05'0 0.0
2015-May-22 03:33N 18°05' W 063°05'0 0.0
2015-May-22 02:33N 18°05' W 063°05'0 0.0
2015-May-22 01:32N 18°05' W 063°05'0 0.0
2015-May-22 00:33N 18°05' W 063°05'0 0.2
2015-May-21 23:32N 18°05' W 063°05'0 0.0
2015-May-21 22:32N 18°05' W 063°05'0 0.0
2015-May-21 21:32N 18°05' W 063°05'0 0.0
2015-May-21 20:33N 18°05' W 063°05'0 0.0
2015-May-21 19:33N 18°05' W 063°05'0 0.0
2015-May-21 18:33N 18°05' W 063°05'0 0.0
2015-May-21 17:31N 18°05' W 063°05'0 0.0
2015-May-21 07:32N 18°05' W 063°05'0 0.0
2015-May-21 06:32N 18°05' W 063°05'0 0.0
2015-May-21 05:33N 18°05' W 063°05'0 0.0
2015-May-21 04:33N 18°05' W 063°05'0 0.0
2015-May-21 03:32N 18°05' W 063°05'5 5.3
2015-May-21 02:33N 18°02' W 063°10'9 9.3
2015-May-21 01:32N 17°53' W 063°07'7 0.7
2015-May-20 16:31N 17°46' W 063°06'9 9.6
2015-May-20 15:33N 17°55' W 063°08'9 9.2
2015-May-20 14:33N 18°05' W 063°10'4 4.3
2015-May-20 13:31N 18°05' W 063°05'0 0.0
2015-May-20 12:33N 18°05' W 063°05'0 0.0
2015-May-20 11:31N 18°05' W 063°05'0 0.2
2015-May-20 10:32N 18°05' W 063°05'0 0.0
2015-May-20 09:33N 18°05' W 063°05'8 7.5
2015-May-20 08:32N 18°07' W 063°13'9 9.6
2015-May-20 07:33N 18°09' W 063°23'67 9.5
2015-May-20 00:29N 18°24' W 064°32'4 0.2
2015-May-18 22:25N 18°25' W 064°36'8 2.5
2015-May-18 19:23N 18°26' W 064°28'7 9.0
2015-May-18 18:33N 18°25' W 064°36'0 0.0
2015-May-17 02:03N 18°25' W 064°36'510.0
2015-May-17 01:33N 18°24' W 064°31'60 9.3
2015-May-16 19:04N 18°10' W 063°29'5 9.5
2015-May-16 18:32N 18°09' W 063°24'1514.8
2015-May-16 17:30N 18°06' W 063°08'3 3.3
2015-May-16 16:32N 18°05' W 063°05'0 0.0
2015-May-16 15:29N 18°05' W 063°05'0 0.0
2015-May-16 14:30N 18°05' W 063°05'0 0.0
2015-May-16 13:33N 18°05' W 063°05'0 0.3
2015-May-16 12:32N 18°05' W 063°05'0 0.0
2015-May-16 11:31N 18°05' W 063°05'0 0.0
2015-May-16 10:31N 18°05' W 063°05'0 0.0
2015-May-16 09:33N 18°05' W 063°05'0 0.0
2015-May-16 08:33N 18°05' W 063°05'0 0.0
2015-May-16 07:33N 18°05' W 063°05'0 0.0
2015-May-16 06:33N 18°05' W 063°05'0 0.0
2015-May-16 05:31N 18°05' W 063°05'0 0.0
2015-May-16 04:33N 18°05' W 063°05'0 0.0
2015-May-15 21:33N 18°05' W 063°05'0 0.0
2015-May-15 20:31N 18°05' W 063°05'0 0.0
2015-May-15 19:31N 18°05' W 063°05'0 0.0
2015-May-15 18:32N 18°05' W 063°05'0 0.2
2015-May-15 17:33N 18°05' W 063°05'0 0.0
2015-May-15 15:32N 18°05' W 063°05'0 0.0
2015-May-15 14:33N 18°05' W 063°05'0 0.0
2015-May-15 13:33N 18°05' W 063°05'0 0.0
2015-May-15 12:32N 18°05' W 063°05'0 0.0
2015-May-15 11:33N 18°05' W 063°05'0 0.0
2015-May-15 10:31N 18°05' W 063°05'0 0.0
2015-May-15 09:32N 18°05' W 063°05'0 0.0
2015-May-15 08:32N 18°05' W 063°05'0 0.0
2015-May-15 07:33N 18°05' W 063°05'0 0.0
2015-May-15 06:32N 18°05' W 063°05'0 0.0
2015-May-15 05:32N 18°05' W 063°05'0 0.0
2015-May-15 04:33N 18°05' W 063°05'0 0.0
2015-May-15 03:33N 18°05' W 063°05'0 0.0
2015-May-15 02:31N 18°05' W 063°05'0 0.0
2015-May-15 01:33N 18°05' W 063°05'0 0.0
2015-May-15 00:33N 18°05' W 063°05'0 0.0
2015-May-14 23:33N 18°05' W 063°05'0 0.0
2015-May-14 22:33N 18°05' W 063°05'0 0.0
2015-May-14 21:33N 18°05' W 063°05'0 0.0
2015-May-14 20:33N 18°05' W 063°05'0 0.0
2015-May-14 19:32N 18°05' W 063°05'0 0.0
2015-May-14 18:31N 18°05' W 063°05'0 0.0
2015-May-14 17:31N 18°05' W 063°05'0 0.0
2015-May-14 16:32N 18°05' W 063°05'0 0.0
2015-May-14 15:33N 18°05' W 063°05'0 0.0
2015-May-14 14:32N 18°05' W 063°05'0 0.0
2015-May-14 13:33N 18°05' W 063°05'0 0.0
2015-May-14 12:32N 18°05' W 063°05'0 0.0
2015-May-14 11:32N 18°05' W 063°05'  

Dump ship's entire track history